sensor_id;sensor_type;location;lat;lon;timestamp;temperature;humidity
19263;DHT22;9765;52.354;20.884;2023-08-08T04:24:59;13.60;99.90
19263;DHT22;9765;52.354;20.884;2023-08-08T04:27:43;13.60;99.90
19263;DHT22;9765;52.354;20.884;2023-08-08T04:30:11;14.50;99.90
19263;DHT22;9765;52.354;20.884;2023-08-08T04:32:39;14.10;99.90
19263;DHT22;9765;52.354;20.884;2023-08-08T04:35:08;14.30;99.90
19263;DHT22;9765;52.354;20.884;2023-08-08T04:37:40;14.40;99.90
19263;DHT22;9765;52.354;20.884;2023-08-08T04:40:30;14.50;99.90
19263;DHT22;9765;52.354;20.884;2023-08-08T04:43:40;15.10;99.90
19263;DHT22;9765;52.354;20.884;2023-08-08T04:46:57;15.00;99.90
19263;DHT22;9765;52.354;20.884;2023-08-08T04:50:18;14.80;99.90
19263;DHT22;9765;52.354;20.884;2023-08-08T04:53:12;15.00;99.90
19263;DHT22;9765;52.354;20.884;2023-08-08T04:56:34;15.10;99.90
19263;DHT22;9765;52.354;20.884;2023-08-08T04:59:52;15.00;99.90
19263;DHT22;9765;52.354;20.884;2023-08-08T05:10:09;15.70;99.90
19263;DHT22;9765;52.354;20.884;2023-08-08T05:34:30;15.90;99.90
19263;DHT22;9765;52.354;20.884;2023-08-08T05:37:10;15.90;99.90
19263;DHT22;9765;52.354;20.884;2023-08-08T05:39:41;16.00;99.90
19263;DHT22;9765;52.354;20.884;2023-08-08T05:42:23;16.10;99.90
19263;DHT22;9765;52.354;20.884;2023-08-08T05:44:53;16.10;99.90
19263;DHT22;9765;52.354;20.884;2023-08-08T05:47:31;16.60;99.90
19263;DHT22;9765;52.354;20.884;2023-08-08T05:50:03;16.20;99.90
19263;DHT22;9765;52.354;20.884;2023-08-08T05:52:31;16.20;99.90
19263;DHT22;9765;52.354;20.884;2023-08-08T05:55:38;16.20;99.90
19263;DHT22;9765;52.354;20.884;2023-08-08T05:59:21;16.20;99.90
19263;DHT22;9765;52.354;20.884;2023-08-08T06:02:19;16.60;99.90
19263;DHT22;9765;52.354;20.884;2023-08-08T06:11:51;16.40;99.90
19263;DHT22;9765;52.354;20.884;2023-08-08T06:15:11;16.30;99.90
19263;DHT22;9765;52.354;20.884;2023-08-08T06:21:22;16.80;99.90
19263;DHT22;9765;52.354;20.884;2023-08-08T06:56:27;17.30;99.90
19263;DHT22;9765;52.354;20.884;2023-08-08T07:27:10;17.50;99.90
19263;DHT22;9765;52.354;20.884;2023-08-08T07:30:01;17.80;99.90
19263;DHT22;9765;52.354;20.884;2023-08-08T07:32:29;17.90;99.90
19263;DHT22;9765;52.354;20.884;2023-08-08T07:35:04;17.80;99.90
19263;DHT22;9765;52.354;20.884;2023-08-08T07:37:39;17.80;99.90
19263;DHT22;9765;52.354;20.884;2023-08-08T07:44:08;17.90;99.90
19263;DHT22;9765;52.354;20.884;2023-08-08T07:48:21;17.50;99.90
19263;DHT22;9765;52.354;20.884;2023-08-08T08:13:27;18.70;99.90
19263;DHT22;9765;52.354;20.884;2023-08-08T08:19:59;19.20;99.90
19263;DHT22;9765;52.354;20.884;2023-08-08T08:23:49;19.30;99.90
19263;DHT22;9765;52.354;20.884;2023-08-08T08:48:21;19.90;99.90
19263;DHT22;9765;52.354;20.884;2023-08-08T16:11:23;21.00;99.90
